createdAt,value
2019-04-14T00:01:17.249Z,2.30
2019-04-14T00:06:22.918Z,2.30
2019-04-14T00:11:28.022Z,2.30
2019-04-14T00:16:33.811Z,2.30
2019-04-14T00:21:39.096Z,2.30
2019-04-14T00:26:44.484Z,2.30
2019-04-14T00:31:52.166Z,2.30
2019-04-14T00:37:16.337Z,2.40
2019-04-14T00:42:40.886Z,2.40
2019-04-14T00:48:01.098Z,2.40
2019-04-14T00:53:01.201Z,2.30
2019-04-14T00:58:06.462Z,2.40
2019-04-14T01:03:11.766Z,2.30
2019-04-14T01:08:16.629Z,2.40
2019-04-14T01:13:22.188Z,2.30
2019-04-14T01:18:27.629Z,2.40
2019-04-14T01:23:32.872Z,2.30
2019-04-14T01:28:37.739Z,2.30
2019-04-14T01:33:44.428Z,2.40
2019-04-14T01:38:49.839Z,2.40
2019-04-14T01:43:55.973Z,2.40
2019-04-14T01:49:01.327Z,2.30
2019-04-14T01:54:32.370Z,2.20
2019-04-14T01:59:37.645Z,2.00
2019-04-14T02:04:44.312Z,1.90
2019-04-14T02:09:49.301Z,1.90
2019-04-14T02:14:54.230Z,1.90
2019-04-14T02:20:01.269Z,1.90
2019-04-14T02:25:07.729Z,1.90
2019-04-14T02:30:19.244Z,1.90
2019-04-14T02:36:05.740Z,1.90
2019-04-14T02:41:04.311Z,1.90
2019-04-14T02:46:05.825Z,2.00
2019-04-14T02:51:12.330Z,2.00
2019-04-14T02:56:15.974Z,2.00
2019-04-14T03:01:26.058Z,1.90
2019-04-14T03:06:25.241Z,1.90
2019-04-14T03:11:32.948Z,1.90
2019-04-14T03:17:14.627Z,1.80
2019-04-14T03:22:26.126Z,1.80
2019-04-14T03:27:49.895Z,1.80
2019-04-14T03:37:53.974Z,1.80
2019-04-14T03:43:07.604Z,1.80
2019-04-14T03:48:34.619Z,1.80
2019-04-14T03:53:16.271Z,1.80
2019-04-14T03:57:54.101Z,1.70
2019-04-14T04:02:59.794Z,1.70
2019-04-14T04:08:05.098Z,1.60
2019-04-14T04:13:10.526Z,1.60
2019-04-14T04:18:20.010Z,1.70
2019-04-14T04:28:54.491Z,1.60
2019-04-14T04:34:09.800Z,1.80
2019-04-14T04:39:19.665Z,1.80
2019-04-14T04:44:24.857Z,1.80
2019-04-14T04:49:32.437Z,1.60
2019-04-14T04:54:38.486Z,1.60
2019-04-14T04:59:43.638Z,1.60
2019-04-14T05:04:49.121Z,1.70
2019-04-14T05:10:19.595Z,1.70
2019-04-14T05:15:36.047Z,1.80
2019-04-14T05:20:41.999Z,1.80
2019-04-14T05:25:47.505Z,1.90
2019-04-14T05:30:52.588Z,1.90
2019-04-14T05:35:58.173Z,1.90
2019-04-14T05:41:03.087Z,1.90
2019-04-14T05:46:07.939Z,2.00
2019-04-14T05:51:13.090Z,2.00
2019-04-14T05:56:18.648Z,2.00
2019-04-14T06:01:24.803Z,2.10
2019-04-14T06:06:29.878Z,2.10
2019-04-14T06:11:35.112Z,2.20
2019-04-14T06:16:40.292Z,2.20
2019-04-14T06:21:45.229Z,2.20
2019-04-14T06:26:50.734Z,2.20
2019-04-14T06:32:05.228Z,2.20
2019-04-14T06:37:15.990Z,2.20
2019-04-14T06:42:20.914Z,2.30
2019-04-14T06:47:25.812Z,2.40
2019-04-14T06:52:30.642Z,2.40
2019-04-14T06:57:37.675Z,2.40
2019-04-14T07:02:42.870Z,2.40
2019-04-14T07:07:56.945Z,2.50
2019-04-14T07:12:55.544Z,2.50
2019-04-14T07:18:01.884Z,2.70
2019-04-14T07:23:07.110Z,2.90
2019-04-14T07:28:12.583Z,2.90
2019-04-14T07:33:46.425Z,3.30
2019-04-14T07:39:09.582Z,3.30
2019-04-14T07:44:30.854Z,3.30
2019-04-14T07:49:58.621Z,3.40
2019-04-14T07:55:11.758Z,3.50
2019-04-14T08:00:30.946Z,3.60
2019-04-14T08:05:37.938Z,3.70
2019-04-14T08:10:42.938Z,3.80
2019-04-14T08:15:48.270Z,4.10
2019-04-14T08:20:53.502Z,4.10
2019-04-14T08:25:59.119Z,4.10
2019-04-14T08:31:04.335Z,4.10
2019-04-14T08:36:09.583Z,4.20
2019-04-14T08:41:14.742Z,4.30
2019-04-14T08:46:27.544Z,4.30
2019-04-14T08:51:36.293Z,4.90
2019-04-14T08:56:48.219Z,5.00
2019-04-14T09:02:18.765Z,5.20
2019-04-14T09:07:33.389Z,5.70
2019-04-14T09:12:39.923Z,5.70
2019-04-14T09:17:45.126Z,5.90
2019-04-14T09:22:50.116Z,6.10
2019-04-14T09:27:55.105Z,6.10
2019-04-14T09:33:03.629Z,6.50
2019-04-14T09:38:08.812Z,6.60
2019-04-14T09:43:13.965Z,6.90
2019-04-14T09:48:18.945Z,6.70
2019-04-14T09:53:24.094Z,6.50
2019-04-14T09:58:29.224Z,6.80
2019-04-14T10:03:34.584Z,6.90
2019-04-14T10:08:39.560Z,6.90
2019-04-14T10:13:44.705Z,6.90
2019-04-14T10:18:49.867Z,7.10
2019-04-14T10:23:55.322Z,7.00
2019-04-14T10:34:04.947Z,7.30
2019-04-14T10:39:10.126Z,7.30
2019-04-14T10:44:15.340Z,7.10
2019-04-14T10:49:20.508Z,7.00
2019-04-14T10:54:25.870Z,7.10
2019-04-14T10:59:31.021Z,7.70
2019-04-14T11:04:36.189Z,8.30
2019-04-14T11:09:41.274Z,8.20
2019-04-14T11:14:46.489Z,8.10
2019-04-14T11:19:51.764Z,8.20
2019-04-14T11:24:56.706Z,8.50
2019-04-14T11:30:01.726Z,8.50
2019-04-14T11:35:29.245Z,8.60
2019-04-14T11:40:39.735Z,9.20
2019-04-14T11:45:44.752Z,9.10
2019-04-14T11:50:49.995Z,8.80
2019-04-14T11:55:54.903Z,9.10
2019-04-14T12:01:28.294Z,9.30
2019-04-14T12:06:56.821Z,9.40
2019-04-14T12:12:01.899Z,9.70
2019-04-14T12:17:07.305Z,9.50
2019-04-14T12:22:12.909Z,9.40
2019-04-14T12:27:18.136Z,9.50
2019-04-14T12:32:23.107Z,10.20
2019-04-14T12:37:28.748Z,9.90
2019-04-14T12:42:45.331Z,9.90
2019-04-14T12:47:56.547Z,10.00
2019-04-14T12:53:01.832Z,9.70
2019-04-14T12:58:07.517Z,9.60
2019-04-14T13:03:12.488Z,10.20
2019-04-14T13:08:18.070Z,10.30
2019-04-14T13:13:23.232Z,10.10
2019-04-14T13:18:28.163Z,9.70
2019-04-14T13:23:33.494Z,10.00
2019-04-14T13:28:38.689Z,10.10
2019-04-14T13:33:44.124Z,10.20
2019-04-14T13:38:49.385Z,10.10
2019-04-14T13:43:55.157Z,10.20
2019-04-14T13:49:00.565Z,10.30
2019-04-14T13:54:05.939Z,10.10
2019-04-14T13:59:11.281Z,10.40
2019-04-14T14:04:16.649Z,10.50
2019-04-14T14:09:21.729Z,10.60
2019-04-14T14:14:35.426Z,10.50
2019-04-14T14:19:46.440Z,10.40
2019-04-14T14:24:58.077Z,10.20
2019-04-14T14:30:03.495Z,10.40
2019-04-14T14:35:09.214Z,10.50
2019-04-14T14:40:14.453Z,10.60
2019-04-14T14:45:38.731Z,10.50
2019-04-14T14:50:56.445Z,10.50
2019-04-14T14:56:01.656Z,10.40
2019-04-14T15:01:08.086Z,10.60
2019-04-14T15:06:13.075Z,10.50
2019-04-14T15:11:18.311Z,10.40
2019-04-14T15:16:23.732Z,10.30
2019-04-14T15:21:29.245Z,10.20
2019-04-14T15:26:34.481Z,10.30
2019-04-14T15:31:39.990Z,10.40
2019-04-14T15:36:44.968Z,10.40
2019-04-14T15:41:50.027Z,10.40
2019-04-14T15:46:55.800Z,10.50
2019-04-14T15:52:01.140Z,10.20
2019-04-14T15:57:37.695Z,10.20
2019-04-14T16:02:55.445Z,10.40
2019-04-14T16:08:10.393Z,10.20
2019-04-14T16:13:34.296Z,10.30
2019-04-14T16:18:54.718Z,10.30
2019-04-14T16:24:00.197Z,10.20
2019-04-14T16:29:11.396Z,10.20
2019-04-14T16:34:25.886Z,10.20
2019-04-14T16:39:30.854Z,10.00
2019-04-14T16:44:36.356Z,10.00
2019-04-14T16:49:42.058Z,9.80
2019-04-14T16:55:02.351Z,9.80
2019-04-14T17:00:09.060Z,9.70
2019-04-14T17:05:14.323Z,9.70
2019-04-14T17:10:19.580Z,9.60
2019-04-14T17:15:42.543Z,9.50
2019-04-14T17:21:05.522Z,9.30
2019-04-14T17:26:36.676Z,9.30
2019-04-14T17:32:06.928Z,9.10
2019-04-14T17:37:18.741Z,9.10
2019-04-14T17:42:28.042Z,8.90
2019-04-14T17:47:51.014Z,8.80
2019-04-14T17:53:17.992Z,8.70
2019-04-14T17:58:27.703Z,8.40
2019-04-14T18:03:45.493Z,8.40
2019-04-14T18:09:03.496Z,8.30
2019-04-14T18:14:14.349Z,8.10
2019-04-14T18:19:30.169Z,8.00
2019-04-14T18:24:42.431Z,7.80
2019-04-14T18:29:47.140Z,7.70
2019-04-14T18:35:23.731Z,7.70
2019-04-14T18:40:46.736Z,7.50
2019-04-14T18:45:55.812Z,7.30
2019-04-14T18:51:38.465Z,7.30
2019-04-14T18:56:54.297Z,7.20
2019-04-14T19:02:02.067Z,7.10
2019-04-14T19:07:07.481Z,6.90
2019-04-14T19:12:30.550Z,6.90
2019-04-14T19:17:51.054Z,6.80
2019-04-14T19:22:56.312Z,6.60
2019-04-14T19:28:03.065Z,6.50
2019-04-14T19:33:08.303Z,6.50
2019-04-14T19:38:13.588Z,6.40
2019-04-14T19:43:23.816Z,6.40
2019-04-14T19:48:25.511Z,6.50
2019-04-14T19:53:30.752Z,6.50
2019-04-14T19:58:36.825Z,6.20
2019-04-14T20:08:46.646Z,5.90
2019-04-14T20:13:51.918Z,5.80
2019-04-14T20:19:18.942Z,5.70
2019-04-14T20:24:31.737Z,5.60
2019-04-14T20:29:39.416Z,5.60
2019-04-14T20:34:47.196Z,5.90
2019-04-14T20:40:09.518Z,5.70
2019-04-14T20:45:15.669Z,5.50
2019-04-14T20:50:22.061Z,5.30
2019-04-14T21:00:52.066Z,5.70
2019-04-14T21:06:27.181Z,6.00
2019-04-14T21:11:52.228Z,5.20
2019-04-14T21:17:10.495Z,5.20
2019-04-14T21:22:40.719Z,5.30
2019-04-14T21:27:58.012Z,5.30
2019-04-14T21:33:31.310Z,4.90
2019-04-14T21:38:47.738Z,4.50
2019-04-14T21:43:52.785Z,4.50
2019-04-14T21:48:59.092Z,4.60
2019-04-14T21:54:04.801Z,4.80
2019-04-14T21:59:16.590Z,4.80
2019-04-14T22:04:44.860Z,4.90
2019-04-14T22:09:50.987Z,5.00
2019-04-14T22:14:55.900Z,4.60
2019-04-14T22:20:00.966Z,4.30
2019-04-14T22:25:06.374Z,4.60
2019-04-14T22:30:11.933Z,4.80
2019-04-14T22:35:16.858Z,5.10
2019-04-14T22:40:21.838Z,4.80
2019-04-14T22:45:26.892Z,4.60
2019-04-14T22:50:31.938Z,4.70
2019-04-14T22:55:37.121Z,4.60
2019-04-14T23:00:50.281Z,4.70
2019-04-14T23:06:04.288Z,4.70
2019-04-14T23:11:27.452Z,4.50
2019-04-14T23:16:40.435Z,4.50
2019-04-14T23:21:59.746Z,4.90
2019-04-14T23:27:05.122Z,5.00
2019-04-14T23:32:10.129Z,5.20
2019-04-14T23:37:15.026Z,4.80
2019-04-14T23:42:20.301Z,4.80
2019-04-14T23:47:44.437Z,4.70
2019-04-14T23:53:01.481Z,4.60
2019-04-14T23:58:06.850Z,4.30
